createdAt,value
2018-04-18T00:02:22.186Z,32.10
2018-04-18T00:04:49.637Z,27.07
2018-04-18T00:07:17.086Z,25.23
2018-04-18T00:09:45.314Z,25.23
2018-04-18T00:12:12.775Z,27.17
2018-04-18T00:14:40.806Z,26.87
2018-04-18T00:17:09.026Z,25.57
2018-04-18T00:19:36.483Z,27.57
2018-04-18T00:22:03.921Z,29.17
2018-04-18T00:24:31.375Z,32.27
2018-04-18T00:26:58.818Z,24.03
2018-04-18T00:29:27.039Z,25.93
2018-04-18T00:31:54.477Z,24.87
2018-04-18T00:34:21.956Z,22.60
2018-04-18T00:36:49.389Z,23.93
2018-04-18T00:39:17.623Z,23.50
2018-04-18T00:41:45.073Z,24.73
2018-04-18T00:44:12.529Z,24.27
2018-04-18T00:46:39.979Z,25.10
2018-04-18T00:49:07.447Z,30.00
2018-04-18T00:51:34.897Z,26.23
2018-04-18T00:54:02.340Z,26.20
2018-04-18T00:56:30.559Z,29.30
2018-04-18T00:58:58.002Z,26.47
2018-04-18T01:01:25.445Z,30.60
2018-04-18T01:03:52.891Z,25.10
2018-04-18T01:06:21.097Z,29.30
2018-04-18T01:08:48.539Z,27.10
2018-04-18T01:11:16.767Z,21.80
2018-04-18T01:13:44.200Z,25.20
2018-04-18T01:16:11.660Z,31.37
2018-04-18T01:18:39.094Z,26.63
2018-04-18T01:21:07.311Z,27.10
2018-04-18T01:23:34.747Z,28.83
2018-04-18T01:26:02.194Z,25.33
2018-04-18T01:28:30.402Z,30.37
2018-04-18T01:30:57.863Z,27.13
2018-04-18T01:33:25.294Z,27.40
2018-04-18T01:35:53.555Z,32.93
2018-04-18T01:38:21.006Z,31.47
2018-04-18T01:40:48.467Z,25.63
2018-04-18T01:43:15.910Z,31.17
2018-04-18T01:45:43.370Z,28.13
2018-04-18T01:48:10.827Z,25.57
2018-04-18T01:50:38.276Z,27.30
2018-04-18T01:53:05.734Z,24.83
2018-04-18T01:55:33.177Z,27.33
2018-04-18T01:58:00.631Z,29.00
2018-04-18T02:00:28.078Z,26.87
2018-04-18T02:02:56.288Z,29.17
2018-04-18T02:05:23.755Z,27.10
2018-04-18T02:07:51.210Z,32.17
2018-04-18T02:10:18.657Z,34.60
2018-04-18T02:12:46.872Z,28.03
2018-04-18T02:15:14.350Z,29.63
2018-04-18T02:17:41.912Z,29.30
2018-04-18T02:20:09.359Z,34.20
2018-04-18T02:22:36.798Z,31.23
2018-04-18T02:25:04.254Z,30.30
2018-04-18T02:27:31.690Z,32.63
2018-04-18T02:29:59.955Z,28.90
2018-04-18T02:32:27.367Z,33.20
2018-04-18T02:34:54.819Z,34.97
2018-04-18T02:37:22.257Z,29.90
2018-04-18T02:39:50.470Z,28.87
2018-04-18T02:42:17.939Z,31.30
2018-04-18T02:44:45.390Z,30.93
2018-04-18T02:47:13.639Z,31.03
2018-04-18T02:49:41.851Z,30.03
2018-04-18T02:52:09.366Z,32.03
2018-04-18T02:54:36.819Z,31.80
2018-04-18T02:57:04.270Z,27.90
2018-04-18T02:59:31.715Z,29.97
2018-04-18T03:01:59.161Z,29.03
2018-04-18T03:04:27.125Z,29.10
2018-04-18T03:06:54.559Z,33.60
2018-04-18T03:09:22.765Z,35.80
2018-04-18T03:11:50.231Z,33.17
2018-04-18T03:14:17.720Z,27.20
2018-04-18T03:16:45.251Z,29.40
2018-04-18T03:19:12.674Z,30.27
2018-04-18T03:21:40.894Z,30.53
2018-04-18T03:24:08.346Z,29.10
2018-04-18T03:26:35.842Z,29.53
2018-04-18T03:29:03.247Z,35.20
2018-04-18T03:31:31.472Z,34.77
2018-04-18T03:33:58.931Z,34.80
2018-04-18T03:36:26.394Z,33.90
2018-04-18T03:38:53.823Z,29.37
2018-04-18T03:41:21.281Z,30.07
2018-04-18T03:43:49.487Z,31.57
2018-04-18T03:46:16.947Z,33.80
2018-04-18T03:48:44.391Z,33.17
2018-04-18T03:51:11.846Z,33.10
2018-04-18T03:53:39.321Z,35.10
2018-04-18T03:56:06.810Z,40.27
2018-04-18T03:58:35.077Z,36.87
2018-04-18T04:01:02.470Z,31.73
2018-04-18T04:03:29.950Z,30.07
2018-04-18T04:05:57.402Z,28.77
2018-04-18T04:08:24.833Z,31.07
2018-04-18T04:10:52.310Z,37.50
2018-04-18T04:13:19.777Z,32.63
2018-04-18T04:15:47.223Z,37.37
2018-04-18T04:18:26.443Z,35.10
2018-04-18T04:21:05.714Z,41.13
2018-04-18T04:23:45.074Z,34.60
2018-04-18T04:26:12.548Z,35.83
2018-04-18T04:28:39.988Z,30.00
2018-04-18T04:31:08.210Z,34.80
2018-04-18T04:33:35.666Z,30.03
2018-04-18T04:36:03.110Z,40.60
2018-04-18T04:38:30.589Z,34.90
2018-04-18T04:40:58.028Z,32.53
2018-04-18T04:43:25.491Z,31.80
2018-04-18T04:45:52.929Z,32.83
2018-04-18T04:48:21.163Z,32.30
2018-04-18T04:50:48.596Z,39.20
2018-04-18T04:53:16.058Z,37.13
2018-04-18T04:55:43.543Z,38.70
2018-04-18T04:58:10.998Z,35.67
2018-04-18T05:00:39.083Z,37.43
2018-04-18T05:03:06.549Z,36.33
2018-04-18T05:05:33.994Z,37.30
2018-04-18T05:08:01.455Z,36.90
2018-04-18T05:10:28.915Z,40.50
2018-04-18T05:12:56.367Z,38.53
2018-04-18T05:15:23.813Z,37.77
2018-04-18T05:17:51.309Z,40.87
2018-04-18T05:20:18.750Z,40.90
2018-04-18T05:22:46.230Z,42.27
2018-04-18T05:25:13.674Z,46.20
2018-04-18T05:27:41.135Z,47.07
2018-04-18T05:30:08.638Z,46.73
2018-04-18T05:32:36.077Z,38.63
2018-04-18T05:35:03.518Z,40.57
2018-04-18T05:37:31.022Z,53.03
2018-04-18T05:39:58.458Z,46.23
2018-04-18T05:42:25.912Z,42.70
2018-04-18T05:44:53.349Z,39.97
2018-04-18T05:47:20.814Z,48.70
2018-04-18T05:49:48.251Z,39.80
2018-04-18T05:52:16.473Z,44.90
2018-04-18T05:54:43.902Z,45.50
2018-04-18T05:57:11.355Z,45.20
2018-04-18T05:59:39.564Z,43.10
2018-04-18T06:02:07.006Z,45.13
2018-04-18T06:04:35.234Z,40.97
2018-04-18T06:07:02.763Z,42.07
2018-04-18T06:09:30.210Z,49.43
2018-04-18T06:11:57.713Z,37.00
2018-04-18T06:14:25.154Z,44.93
2018-04-18T06:16:52.603Z,39.53
2018-04-18T06:19:20.113Z,35.93
2018-04-18T06:21:47.541Z,39.87
2018-04-18T06:24:14.995Z,40.03
2018-04-18T06:26:42.493Z,41.93
2018-04-18T06:29:10.061Z,48.10
2018-04-18T06:31:37.520Z,40.60
2018-04-18T06:34:04.999Z,43.73
2018-04-18T06:36:32.459Z,42.17
2018-04-18T06:38:59.914Z,41.37
2018-04-18T06:41:27.387Z,37.70
2018-04-18T06:43:54.919Z,34.57
2018-04-18T06:46:22.362Z,40.67
2018-04-18T06:48:49.819Z,37.23
2018-04-18T06:51:17.358Z,40.27
2018-04-18T06:53:44.790Z,37.37
2018-04-18T06:56:12.219Z,40.90
2018-04-18T06:58:39.695Z,49.97
2018-04-18T07:01:07.211Z,38.37
2018-04-18T07:03:34.667Z,40.40
2018-04-18T07:06:02.170Z,40.57
2018-04-18T07:08:29.635Z,41.10
2018-04-18T07:10:57.198Z,38.87
2018-04-18T07:13:24.697Z,42.60
2018-04-18T07:15:52.129Z,47.60
2018-04-18T07:18:19.699Z,38.67
2018-04-18T07:20:47.155Z,41.00
2018-04-18T07:23:14.805Z,40.90
2018-04-18T07:25:42.347Z,31.23
2018-04-18T07:28:09.847Z,42.93
2018-04-18T07:30:37.403Z,44.97
2018-04-18T07:33:04.869Z,38.03
2018-04-18T07:35:32.315Z,34.70
2018-04-18T07:37:59.791Z,33.40
2018-04-18T07:40:27.238Z,37.43
2018-04-18T07:42:54.707Z,36.10
2018-04-18T07:45:22.258Z,42.57
2018-04-18T07:47:49.695Z,35.20
2018-04-18T07:50:17.203Z,34.97
2018-04-18T07:52:45.533Z,31.23
2018-04-18T07:55:13.743Z,28.13
2018-04-18T07:57:41.197Z,25.83
2018-04-18T08:00:08.641Z,23.90
2018-04-18T08:02:36.950Z,29.70
2018-04-18T08:05:04.394Z,22.97
2018-04-18T08:07:31.952Z,23.03
2018-04-18T08:09:59.446Z,26.13
2018-04-18T08:12:27.006Z,27.27
2018-04-18T08:14:54.473Z,21.20
2018-04-18T08:17:21.909Z,20.90
2018-04-18T08:19:49.395Z,19.87
2018-04-18T08:22:16.924Z,15.57
2018-04-18T08:24:44.388Z,19.53
2018-04-18T08:27:11.848Z,17.77
2018-04-18T08:29:39.339Z,18.47
2018-04-18T08:32:06.815Z,15.07
2018-04-18T08:34:34.421Z,22.20
2018-04-18T08:37:01.849Z,17.30
2018-04-18T08:39:29.387Z,16.30
2018-04-18T08:41:56.829Z,17.50
2018-04-18T08:44:24.310Z,24.13
2018-04-18T08:46:51.747Z,27.00
2018-04-18T08:49:19.202Z,15.80
2018-04-18T08:51:46.639Z,17.07
2018-04-18T08:54:14.854Z,17.47
2018-04-18T08:56:42.289Z,14.47
2018-04-18T08:59:10.506Z,15.43
2018-04-18T09:01:37.943Z,15.20
2018-04-18T09:04:05.420Z,17.87
2018-04-18T09:06:32.853Z,15.50
2018-04-18T09:09:00.318Z,20.37
2018-04-18T09:11:27.827Z,14.63
2018-04-18T09:13:55.324Z,15.67
2018-04-18T09:16:22.749Z,13.50
2018-04-18T09:18:50.226Z,10.10
2018-04-18T09:21:17.693Z,17.10
2018-04-18T09:23:45.239Z,21.53
2018-04-18T09:26:12.695Z,13.00
2018-04-18T09:28:40.155Z,14.33
2018-04-18T09:31:07.617Z,12.50
2018-04-18T09:33:35.077Z,18.87
2018-04-18T09:36:02.534Z,13.40
2018-04-18T09:38:29.991Z,15.70
2018-04-18T09:40:57.544Z,19.83
2018-04-18T09:43:24.979Z,19.47
2018-04-18T09:45:52.495Z,21.43
2018-04-18T09:48:19.950Z,17.30
2018-04-18T09:50:47.414Z,16.87
2018-04-18T09:53:14.910Z,16.57
2018-04-18T09:55:42.350Z,16.43
2018-04-18T09:58:09.811Z,16.83
2018-04-18T10:03:41.730Z,18.07
2018-04-18T10:06:09.602Z,15.80
2018-04-18T10:08:37.050Z,12.53
2018-04-18T10:11:04.511Z,18.20
2018-04-18T10:13:31.945Z,17.90
2018-04-18T10:15:59.394Z,16.77
2018-04-18T10:18:26.835Z,15.67
2018-04-18T10:20:54.307Z,22.00
2018-04-18T10:23:21.749Z,21.83
2018-04-18T10:25:49.218Z,17.20
2018-04-18T10:28:16.662Z,16.83
2018-04-18T10:30:44.145Z,15.60
2018-04-18T10:33:11.590Z,14.30
2018-04-18T10:35:39.066Z,18.70
2018-04-18T10:38:06.589Z,19.67
2018-04-18T10:40:33.999Z,22.73
2018-04-18T10:43:01.455Z,22.27
2018-04-18T10:45:29.218Z,19.27
2018-04-18T10:47:56.654Z,23.53
2018-04-18T10:50:24.138Z,21.03
2018-04-18T10:52:51.607Z,23.63
2018-04-18T10:55:19.066Z,54.90
2018-04-18T10:57:46.531Z,58.80
2018-04-18T11:00:13.983Z,57.33
2018-04-18T11:02:42.625Z,63.27
2018-04-18T11:05:10.841Z,64.07
2018-04-18T11:07:38.277Z,41.37
2018-04-18T11:10:07.591Z,24.57
2018-04-18T11:12:35.025Z,62.37
2018-04-18T11:15:04.550Z,30.53
2018-04-18T11:17:33.554Z,27.80
2018-04-18T11:20:00.980Z,21.70
2018-04-18T11:22:28.426Z,20.90
2018-04-18T11:24:55.879Z,18.23
2018-04-18T11:27:23.325Z,18.63
2018-04-18T11:29:50.917Z,21.37
2018-04-18T11:32:18.358Z,24.37
2018-04-18T11:34:45.833Z,38.53
2018-04-18T11:37:14.044Z,18.40
2018-04-18T11:39:42.319Z,29.23
2018-04-18T11:42:09.754Z,24.80
2018-04-18T11:44:37.199Z,20.53
2018-04-18T11:47:04.653Z,20.70
2018-04-18T11:49:32.097Z,22.23
2018-04-18T11:51:59.553Z,25.93
2018-04-18T11:54:26.986Z,23.40
2018-04-18T11:56:55.223Z,21.03
2018-04-18T11:59:22.691Z,20.50
2018-04-18T12:01:50.251Z,22.73
2018-04-18T12:04:17.703Z,15.67
2018-04-18T12:06:45.244Z,17.47
2018-04-18T12:09:12.745Z,17.20
2018-04-18T12:11:40.218Z,21.50
2018-04-18T12:14:07.770Z,24.63
2018-04-18T12:16:35.217Z,25.00
2018-04-18T12:19:02.669Z,24.93
2018-04-18T12:21:30.123Z,21.53
2018-04-18T12:23:57.568Z,24.50
2018-04-18T12:26:25.077Z,22.50
2018-04-18T12:28:52.704Z,23.97
2018-04-18T12:31:20.164Z,13.67
2018-04-18T12:33:47.639Z,26.03
2018-04-18T12:36:15.825Z,25.20
2018-04-18T12:38:43.305Z,34.43
2018-04-18T12:41:11.611Z,30.07
2018-04-18T12:43:39.045Z,20.80
2018-04-18T12:46:06.502Z,20.13
2018-04-18T12:48:33.957Z,33.07
2018-04-18T12:51:01.524Z,27.03
2018-04-18T12:53:28.974Z,23.00
2018-04-18T12:55:56.521Z,29.70
2018-04-18T12:58:23.963Z,24.23
2018-04-18T13:00:52.175Z,38.63
2018-04-18T13:03:19.657Z,25.07
2018-04-18T13:05:47.115Z,28.73
2018-04-18T13:08:14.558Z,28.80
2018-04-18T13:10:42.875Z,29.77
2018-04-18T13:13:10.295Z,24.17
2018-04-18T13:15:37.751Z,26.20
2018-04-18T13:18:05.207Z,22.50
2018-04-18T13:20:32.666Z,27.23
2018-04-18T13:23:00.113Z,29.37
2018-04-18T13:25:27.611Z,26.50
2018-04-18T13:27:55.773Z,25.60
2018-04-18T13:30:23.240Z,25.93
2018-04-18T13:32:50.706Z,29.60
2018-04-18T13:35:18.167Z,33.90
2018-04-18T13:37:46.064Z,26.03
2018-04-18T13:40:13.484Z,29.03
2018-04-18T13:42:40.957Z,28.40
2018-04-18T13:45:08.395Z,27.20
2018-04-18T13:47:35.854Z,32.57
2018-04-18T13:50:04.072Z,19.43
2018-04-18T13:52:31.536Z,25.13
2018-04-18T13:54:58.988Z,32.53
2018-04-18T13:57:26.466Z,32.20
2018-04-18T13:59:53.915Z,22.17
2018-04-18T14:02:21.375Z,24.83
2018-04-18T14:04:48.811Z,28.27
2018-04-18T14:07:16.266Z,21.53
2018-04-18T14:09:43.719Z,28.80
2018-04-18T14:12:11.943Z,24.53
2018-04-18T14:14:39.397Z,21.17
2018-04-18T14:17:06.854Z,30.33
2018-04-18T14:19:34.305Z,33.10
2018-04-18T14:22:01.759Z,28.73
2018-04-18T14:24:29.208Z,36.50
2018-04-18T14:26:56.698Z,36.63
2018-04-18T14:29:24.144Z,32.80
2018-04-18T14:31:51.596Z,32.10
2018-04-18T14:34:19.824Z,28.93
2018-04-18T14:36:47.275Z,25.30
2018-04-18T14:39:14.739Z,17.57
2018-04-18T14:41:42.172Z,31.30
2018-04-18T14:44:09.663Z,32.70
2018-04-18T14:46:37.335Z,33.70
2018-04-18T14:49:04.786Z,27.17
2018-04-18T14:51:32.255Z,27.63
2018-04-18T14:53:59.712Z,34.27
2018-04-18T14:56:27.151Z,32.27
2018-04-18T14:58:54.617Z,24.63
2018-04-18T15:01:22.061Z,22.33
2018-04-18T15:03:49.508Z,26.20
2018-04-18T15:06:17.718Z,37.27
2018-04-18T15:08:45.175Z,30.97
2018-04-18T15:11:12.731Z,19.00
2018-04-18T15:13:40.212Z,34.13
2018-04-18T15:16:07.667Z,10.90
2018-04-18T15:18:35.805Z,21.40
2018-04-18T15:21:04.092Z,15.43
2018-04-18T15:23:32.300Z,13.27
2018-04-18T15:25:59.730Z,9.33
2018-04-18T15:28:27.938Z,16.13
2018-04-18T15:30:55.493Z,12.83
2018-04-18T15:33:23.067Z,35.93
2018-04-18T15:35:50.514Z,28.70
2018-04-18T15:38:17.980Z,21.10
2018-04-18T15:40:45.494Z,20.33
2018-04-18T15:43:12.953Z,17.53
2018-04-18T15:45:40.418Z,19.83
2018-04-18T15:48:08.147Z,22.17
2018-04-18T15:50:35.594Z,21.87
2018-04-18T15:53:03.077Z,27.00
2018-04-18T15:55:30.526Z,20.77
2018-04-18T15:57:58.026Z,26.27
2018-04-18T16:00:25.464Z,29.53
2018-04-18T16:02:52.942Z,20.57
2018-04-18T16:05:20.383Z,20.43
2018-04-18T16:07:47.835Z,22.37
2018-04-18T16:10:15.295Z,19.80
2018-04-18T16:12:42.823Z,33.87
2018-04-18T16:15:11.031Z,22.63
2018-04-18T16:17:38.671Z,26.80
2018-04-18T16:20:06.897Z,25.20
2018-04-18T16:22:34.331Z,19.83
2018-04-18T16:25:01.782Z,17.13
2018-04-18T16:27:29.222Z,29.97
2018-04-18T16:29:57.476Z,23.30
2018-04-18T16:32:24.959Z,32.77
2018-04-18T16:34:52.393Z,19.70
2018-04-18T16:37:19.829Z,22.80
2018-04-18T16:39:47.286Z,28.80
2018-04-18T16:42:14.759Z,31.43
2018-04-18T16:44:42.218Z,21.23
2018-04-18T16:47:09.670Z,21.63
2018-04-18T16:49:37.129Z,19.70
2018-04-18T16:52:04.579Z,26.33
2018-04-18T16:54:32.051Z,18.80
2018-04-18T16:56:59.519Z,26.70
2018-04-18T16:59:26.998Z,17.60
2018-04-18T17:01:54.455Z,20.80
2018-04-18T17:04:21.909Z,21.60
2018-04-18T17:06:49.371Z,23.77
2018-04-18T17:09:16.911Z,21.13
2018-04-18T17:11:45.202Z,21.90
2018-04-18T17:14:12.631Z,21.03
2018-04-18T17:16:40.862Z,29.33
2018-04-18T17:19:08.327Z,30.02
2018-04-18T17:21:35.866Z,25.23
2018-04-18T17:24:03.458Z,27.20
2018-04-18T17:26:30.893Z,29.03
2018-04-18T17:28:58.544Z,23.87
2018-04-18T17:31:25.958Z,26.13
2018-04-18T17:33:53.447Z,22.33
2018-04-18T17:36:20.868Z,17.90
2018-04-18T17:38:48.356Z,19.80
2018-04-18T17:41:15.817Z,21.87
2018-04-18T17:43:44.217Z,20.30
2018-04-18T17:46:12.559Z,16.13
2018-04-18T17:48:40.007Z,21.17
2018-04-18T17:51:07.448Z,21.50
2018-04-18T17:53:34.939Z,24.67
2018-04-18T17:56:02.416Z,17.27
2018-04-18T17:58:29.851Z,22.33
2018-04-18T18:00:57.360Z,17.87
2018-04-18T18:03:24.998Z,25.20
2018-04-18T18:05:52.453Z,20.23
2018-04-18T18:08:20.636Z,17.60
2018-04-18T18:10:48.118Z,22.47
2018-04-18T18:13:16.377Z,14.70
2018-04-18T18:15:43.845Z,11.80
2018-04-18T18:18:12.121Z,20.47
2018-04-18T18:20:39.650Z,20.80
2018-04-18T18:23:07.223Z,25.20
2018-04-18T18:25:34.698Z,19.63
2018-04-18T18:28:02.183Z,18.93
2018-04-18T18:30:29.754Z,21.20
2018-04-18T18:32:57.266Z,19.80
2018-04-18T18:35:24.705Z,19.50
2018-04-18T18:37:52.159Z,22.67
2018-04-18T18:40:20.399Z,23.83
2018-04-18T18:42:47.939Z,21.40
2018-04-18T18:45:15.407Z,20.83
2018-04-18T18:47:42.851Z,23.23
2018-04-18T18:50:10.318Z,27.87
2018-04-18T18:52:37.763Z,26.40
2018-04-18T18:55:05.255Z,22.63
2018-04-18T18:57:32.702Z,28.43
2018-04-18T19:00:00.225Z,25.50
2018-04-18T19:02:27.629Z,22.40
2018-04-18T19:04:55.114Z,26.33
2018-04-18T19:07:22.563Z,24.30
2018-04-18T19:09:50.126Z,20.63
2018-04-18T19:12:17.572Z,22.40
2018-04-18T19:14:45.014Z,23.10
2018-04-18T19:17:13.247Z,21.50
2018-04-18T19:19:40.683Z,20.63
2018-04-18T19:22:08.142Z,19.37
2018-04-18T19:24:35.587Z,26.33
2018-04-18T19:27:03.067Z,20.93
2018-04-18T19:29:30.559Z,24.00
2018-04-18T19:31:58.012Z,24.43
2018-04-18T19:34:25.475Z,23.17
2018-04-18T19:36:52.927Z,24.20
2018-04-18T19:39:20.368Z,27.97
2018-04-18T19:41:47.825Z,22.70
2018-04-18T19:44:15.309Z,24.60
2018-04-18T19:46:42.779Z,22.03
2018-04-18T19:49:10.238Z,25.17
2018-04-18T19:51:37.678Z,24.83
2018-04-18T19:54:05.174Z,25.07
2018-04-18T19:56:32.731Z,25.90
2018-04-18T19:59:00.184Z,23.93
2018-04-18T20:01:27.647Z,25.73
2018-04-18T20:03:55.077Z,25.50
2018-04-18T20:06:22.536Z,25.27
2018-04-18T20:08:50.043Z,25.50
2018-04-18T20:11:17.979Z,25.83
2018-04-18T20:13:45.457Z,32.80
2018-04-18T20:16:12.914Z,23.70
2018-04-18T20:18:40.371Z,26.10
2018-04-18T20:21:07.826Z,27.10
2018-04-18T20:23:35.301Z,22.73
2018-04-18T20:26:02.771Z,27.67
2018-04-18T20:28:30.225Z,29.03
2018-04-18T20:30:57.674Z,24.33
2018-04-18T20:33:25.120Z,25.97
2018-04-18T20:35:52.623Z,28.57
2018-04-18T20:38:20.065Z,26.27
2018-04-18T20:40:47.539Z,25.37
2018-04-18T20:43:15.674Z,24.97
2018-04-18T20:45:43.999Z,24.10
2018-04-18T20:48:11.447Z,28.93
2018-04-18T20:50:38.919Z,26.93
2018-04-18T20:53:06.383Z,22.80
2018-04-18T20:55:33.938Z,21.93
2018-04-18T20:58:01.311Z,27.17
2018-04-18T21:00:28.769Z,23.80
2018-04-18T21:02:56.223Z,26.70
2018-04-18T21:05:23.675Z,27.83
2018-04-18T21:07:51.146Z,24.90
2018-04-18T21:10:18.590Z,31.43
2018-04-18T21:12:46.145Z,32.67
2018-04-18T21:15:14.151Z,28.20
2018-04-18T21:17:41.707Z,26.97
2018-04-18T21:20:09.181Z,28.73
2018-04-18T21:22:36.739Z,28.23
2018-04-18T21:25:04.199Z,32.17
2018-04-18T21:27:31.655Z,28.87
2018-04-18T21:29:59.092Z,28.17
2018-04-18T21:32:26.555Z,34.73
2018-04-18T21:34:54.743Z,30.30
2018-04-18T21:37:22.212Z,33.20
2018-04-18T21:39:49.655Z,32.40
2018-04-18T21:42:17.115Z,28.10
2018-04-18T21:44:44.613Z,35.97
2018-04-18T21:47:12.062Z,30.67
2018-04-18T21:49:39.511Z,32.77
2018-04-18T21:52:06.979Z,30.90
2018-04-18T21:54:34.454Z,34.10
2018-04-18T21:57:01.899Z,31.10
2018-04-18T21:59:29.370Z,29.60
2018-04-18T22:01:56.835Z,32.87
2018-04-18T22:04:24.299Z,35.93
2018-04-18T22:06:51.746Z,35.30
2018-04-18T22:09:19.182Z,34.47
2018-04-18T22:11:46.638Z,30.97
2018-04-18T22:14:14.964Z,31.43
2018-04-18T22:16:42.457Z,39.00
2018-04-18T22:19:09.841Z,34.03
2018-04-18T22:21:37.281Z,32.80
2018-04-18T22:24:05.492Z,36.07
2018-04-18T22:26:32.945Z,33.93
2018-04-18T22:29:00.390Z,32.67
2018-04-18T22:31:28.650Z,32.77
2018-04-18T22:33:56.163Z,42.93
2018-04-18T22:36:23.651Z,31.80
2018-04-18T22:38:51.206Z,31.50
2018-04-18T22:41:18.668Z,31.17
2018-04-18T22:43:46.149Z,40.77
2018-04-18T22:46:13.629Z,34.00
2018-04-18T22:48:41.863Z,36.40
2018-04-18T22:51:09.343Z,35.60
2018-04-18T22:53:36.803Z,32.97
2018-04-18T22:56:04.255Z,35.70
2018-04-18T22:58:31.713Z,37.30
2018-04-18T23:00:59.153Z,36.00
2018-04-18T23:03:26.648Z,29.37
2018-04-18T23:05:54.097Z,40.17
2018-04-18T23:08:21.660Z,30.30
2018-04-18T23:10:49.089Z,33.20
2018-04-18T23:13:16.548Z,39.63
2018-04-18T23:15:44.002Z,30.40
2018-04-18T23:18:12.236Z,30.47
2018-04-18T23:20:39.694Z,27.87
2018-04-18T23:23:07.155Z,29.60
2018-04-18T23:25:34.597Z,33.80
2018-04-18T23:28:02.054Z,38.80
2018-04-18T23:30:29.499Z,36.23
2018-04-18T23:32:56.947Z,33.70
2018-04-18T23:35:25.154Z,33.80
2018-04-18T23:37:52.666Z,37.43
2018-04-18T23:40:20.204Z,31.33
2018-04-18T23:42:47.649Z,33.00
2018-04-18T23:45:15.098Z,32.63
2018-04-18T23:47:42.554Z,32.63
2018-04-18T23:50:09.999Z,34.37
2018-04-18T23:52:38.238Z,31.53
2018-04-18T23:55:05.677Z,30.87
2018-04-18T23:57:33.145Z,37.23
